Time;durP1;ratioP1;P1;durP2;ratioP2;P2;SDS_P1;SDS_P2;PMS_P1;PMS_P2;Temp;Humidity;BMP_temperature;BMP_pressure;BME280_temperature;BME280_humidity;BME280_pressure;Samples;Min_cycle;Max_cycle;Signal;HPM_P1;HPM_P2
2023/06/08 00:00:39;;;;;;;2.67;1.85;;;;;;;17.39;98.14;99534.00;5036016;28;20139;-62
2023/06/08 00:03:08;;;;;;;1.10;1.00;;;;;;;17.34;98.28;99517.84;5035652;28;20053;-62
2023/06/08 00:05:44;;;;;;;3.17;2.05;;;;;;;17.40;98.38;99515.03;5035887;28;20052;-63
2023/06/08 00:08:15;;;;;;;2.70;1.90;;;;;;;17.42;98.28;99521.00;5035883;28;20048;-62
2023/06/08 00:10:44;;;;;;;2.58;1.25;;;;;;;17.45;98.42;99514.91;5035529;28;20099;-62
2023/06/08 00:13:16;;;;;;;1.45;1.33;;;;;;;17.44;98.52;99506.31;5035486;28;20080;-62
2023/06/08 00:15:45;;;;;;;3.75;1.92;;;;;;;17.29;98.77;99486.16;5035586;28;20103;-62
2023/06/08 00:18:15;;;;;;;;;;;;;;;17.47;98.73;99507.13;5036096;28;20046;-62
2023/06/08 00:20:44;;;;;;;;;;;;;;;17.47;98.74;99513.09;5035810;28;19921;-62
2023/06/08 00:23:14;;;;;;;2.20;2.00;;;;;;;17.48;98.85;99506.22;5051063;28;20012;-62
2023/06/08 00:25:44;;;;;;;2.58;2.03;;;;;;;17.49;98.85;99515.66;5035652;28;20132;-62
2023/06/08 00:28:12;;;;;;;1.83;1.73;;;;;;;17.50;98.96;99519.91;5035267;28;20557;-62
2023/06/08 00:30:41;;;;;;;3.22;2.80;;;;;;;17.35;98.87;99492.84;5035439;28;20037;-62
2023/06/08 00:33:10;;;;;;;2.88;2.15;;;;;;;17.33;98.99;99490.31;5033782;28;20132;-62
2023/06/08 00:35:39;;;;;;;7.78;2.40;;;;;;;17.48;98.98;99509.66;5033611;28;20136;-63
2023/06/08 00:38:08;;;;;;;4.37;1.60;;;;;;;17.31;99.20;99481.78;5035327;28;20054;-63
2023/06/08 00:40:42;;;;;;;1.85;1.40;;;;;;;17.51;99.12;99511.28;5035062;28;20052;-62
2023/06/08 00:43:11;;;;;;;4.55;2.25;;;;;;;17.50;98.97;99512.16;5034945;28;20107;-62
2023/06/08 00:45:41;;;;;;;1.10;1.00;;;;;;;17.50;98.89;99512.16;5035092;28;20060;-63
2023/06/08 00:48:10;;;;;;;1.95;1.77;;;;;;;17.33;99.07;99482.59;5035213;28;20053;-62
2023/06/08 00:50:41;;;;;;;6.18;1.58;;;;;;;17.49;98.98;99515.66;5033825;28;20520;-62
2023/06/08 00:53:11;;;;;;;4.55;2.72;;;;;;;17.44;98.98;99503.72;5035066;28;20104;-62
2023/06/08 00:55:43;;;;;;;2.58;2.20;;;;;;;17.46;98.91;99505.44;5050140;28;20063;-62
2023/06/08 00:58:13;;;;;;;1.25;1.15;;;;;;;17.46;98.89;99500.25;5033494;28;20045;-62
2023/06/08 01:00:43;;;;;;;;;;;;;;;17.44;98.85;99495.16;5035003;28;20049;-62
2023/06/08 01:03:12;;;;;;;0.80;0.80;;;;;;;17.43;99.00;99496.91;5034899;28;20377;-62
2023/06/08 01:05:43;;;;;;;2.45;1.70;;;;;;;17.40;99.11;99486.66;5033336;28;20053;-62
2023/06/08 01:08:21;;;;;;;0.70;0.70;;;;;;;17.44;99.09;99490.00;5034875;28;20052;-62
2023/06/08 01:11:04;;;;;;;1.00;0.90;;;;;;;17.43;98.87;99491.72;5034708;28;20126;-62
2023/06/08 01:13:41;;;;;;;3.05;2.75;;;;;;;17.41;99.09;99480.63;5034647;28;20048;-62
2023/06/08 01:16:15;;;;;;;1.67;1.27;;;;;;;17.39;98.90;99485.00;5033093;28;20059;-62
2023/06/08 01:18:47;;;;;;;1.48;1.38;;;;;;;17.40;98.89;99483.22;5033082;28;20049;-63
2023/06/08 01:21:37;;;;;;;1.45;1.27;;;;;;;17.36;99.05;99482.50;5034478;28;20399;-62
2023/06/08 01:24:12;;;;;;;2.95;1.02;;;;;;;17.33;98.84;99480.00;5034513;28;20598;-62
2023/06/08 01:26:42;;;;;;;0.68;0.68;;;;;;;17.34;98.98;99480.84;5034380;28;20045;-62
2023/06/08 01:29:13;;;;;;;6.07;2.20;;;;;;;17.35;99.00;99485.97;5034061;28;20053;-62
2023/06/08 01:31:43;;;;;;;1.52;1.27;;;;;;;17.35;99.13;99485.97;5033980;28;20451;-62
2023/06/08 01:34:14;;;;;;;2.05;1.85;;;;;;;17.35;99.10;99488.53;5034009;28;20056;-62
2023/06/08 01:36:52;;;;;;;1.25;1.10;;;;;;;17.34;98.96;99481.72;5034247;28;20091;-62
2023/06/08 01:39:37;;;;;;;0.95;0.88;;;;;;;17.37;98.94;99497.06;5033946;28;20049;-62
2023/06/08 01:42:09;;;;;;;3.40;0.75;;;;;;;17.37;98.94;99489.34;5033916;28;20060;-62
2023/06/08 01:44:44;;;;;;;0.95;0.93;;;;;;;17.35;98.93;99488.53;5032697;28;20053;-62
2023/06/08 01:47:14;;;;;;;0.65;0.65;;;;;;;17.31;98.71;99483.53;5033205;28;20124;-62
2023/06/08 01:49:45;;;;;;;2.70;1.98;;;;;;;17.20;98.73;99472.72;5032803;28;20495;-62
2023/06/08 01:52:15;;;;;;;2.60;2.13;;;;;;;17.37;98.93;99497.06;5033766;28;20049;-62
2023/06/08 01:54:45;;;;;;;1.27;1.17;;;;;;;17.41;98.79;99497.84;5032601;28;20492;-62
2023/06/08 01:57:14;;;;;;;1.67;1.58;;;;;;;17.42;98.59;99505.50;5032717;28;20054;-62
2023/06/08 01:59:43;;;;;;;1.20;1.10;;;;;;;17.41;98.56;99498.69;5032511;28;20084;-62
2023/06/08 02:02:12;;;;;;;2.90;1.13;;;;;;;17.24;98.65;99475.13;5032426;28;20056;-62
2023/06/08 02:04:41;;;;;;;3.07;1.53;;;;;;;17.36;98.56;99495.41;5032405;28;20164;-62
2023/06/08 02:07:10;;;;;;;0.47;0.47;;;;;;;17.30;98.59;99490.41;5032333;28;20286;-62
2023/06/08 02:09:39;;;;;;;1.75;1.65;;;;;;;17.29;98.48;99480.16;5032272;28;20049;-62
2023/06/08 02:12:10;;;;;;;5.07;2.50;;;;;;;17.35;98.58;99490.28;5032376;28;20136;-62
2023/06/08 02:14:41;;;;;;;2.28;1.80;;;;;;;17.32;98.40;99493.78;5032416;28;20098;-62
2023/06/08 02:17:11;;;;;;;2.63;1.80;;;;;;;17.12;98.51;99470.34;5033594;28;20045;-62
2023/06/08 02:19:40;;;;;;;3.90;2.13;;;;;;;17.21;98.59;99479.53;5033462;28;20107;-62
2023/06/08 02:22:09;;;;;;;1.67;1.33;;;;;;;17.22;98.49;99487.25;5033730;28;20491;-62
2023/06/08 02:24:42;;;;;;;1.15;1.05;;;;;;;17.23;98.54;99491.50;5033390;28;20049;-62
2023/06/08 02:27:13;;;;;;;1.30;1.17;;;;;;;17.22;98.51;99501.88;5032548;28;20517;-62
2023/06/08 02:29:42;;;;;;;2.10;1.88;;;;;;;17.14;98.57;99489.22;5033286;28;20507;-62
2023/06/08 02:32:11;;;;;;;1.35;1.25;;;;;;;17.17;98.42;99494.28;5032034;28;20053;-62
2023/06/08 02:34:40;;;;;;;3.53;1.75;;;;;;;17.19;98.46;99495.06;5015891;28;20442;-62
2023/06/08 02:37:10;;;;;;;2.47;1.15;;;;;;;17.10;98.45;99477.31;5033280;28;20072;-62
2023/06/08 02:39:39;;;;;;;1.73;1.35;;;;;;;17.01;98.16;99472.41;5033267;28;20057;-62
2023/06/08 02:42:08;;;;;;;1.55;1.45;;;;;;;17.15;98.28;99490.91;5032162;28;20053;-62
2023/06/08 02:44:39;;;;;;;1.65;1.45;;;;;;;17.12;98.41;99491.00;5032127;28;20049;-62
2023/06/08 02:47:08;;;;;;;3.05;1.08;;;;;;;17.18;98.46;99489.97;5031995;28;20419;-62
2023/06/08 02:49:37;;;;;;;1.92;0.90;;;;;;;17.20;98.45;99491.59;5032216;28;20045;-62
2023/06/08 02:52:06;;;;;;;2.03;1.88;;;;;;;17.21;98.33;99495.88;5033063;28;20041;-63
2023/06/08 02:54:36;;;;;;;5.90;1.25;;;;;;;17.17;98.23;99489.13;5031975;28;20053;-62
2023/06/08 02:57:05;;;;;;;0.60;0.60;;;;;;;16.98;98.07;99463.94;5034208;28;20045;-62
2023/06/08 02:59:43;;;;;;;1.40;1.10;;;;;;;17.14;98.17;99494.38;5035942;28;20053;-62
2023/06/08 03:02:12;;;;;;;1.25;1.15;;;;;;;17.16;98.15;99495.16;5035666;28;20041;-62
2023/06/08 03:04:43;;;;;;;2.70;1.90;;;;;;;17.15;98.15;99493.50;5035708;28;20045;-62
2023/06/08 03:07:17;;;;;;;1.85;1.17;;;;;;;17.13;98.22;99497.00;5036746;28;20052;-62
2023/06/08 03:09:55;;;;;;;1.35;1.25;;;;;;;17.10;98.24;99500.50;5036988;28;20045;-63
2023/06/08 03:12:24;;;;;;;0.98;0.90;;;;;;;17.14;98.23;99499.53;5035421;28;20049;-62
2023/06/08 03:14:55;;;;;;;;;;;;;;;17.15;98.24;99496.06;5037020;28;20054;-62
2023/06/08 03:17:27;;;;;;;8.75;2.05;;;;;;;17.17;98.18;99499.44;5036861;28;19928;-62
2023/06/08 03:19:59;;;;;;;0.70;0.70;;;;;;;17.20;98.21;99501.91;5036816;28;20084;-62
2023/06/08 03:22:34;;;;;;;4.85;1.35;;;;;;;17.23;98.29;99493.22;5036435;28;20041;-62
2023/06/08 03:25:08;;;;;;;1.15;1.00;;;;;;;17.16;98.22;99486.56;5036734;28;20045;-62
2023/06/08 03:27:38;;;;;;;1.35;1.25;;;;;;;17.21;98.29;99501.03;5036396;28;20084;-62
2023/06/08 03:30:14;;;;;;;1.02;1.00;;;;;;;17.19;98.26;99497.66;5036577;28;20052;-62
2023/06/08 03:32:52;;;;;;;2.13;1.23;;;;;;;17.15;98.03;99496.06;5036084;28;20081;-62
2023/06/08 03:35:36;;;;;;;1.08;0.98;;;;;;;17.17;97.93;99499.44;5036515;28;20403;-62
2023/06/08 03:38:17;;;;;;;1.05;0.95;;;;;;;17.18;98.04;99501.09;5036174;28;20046;-62
2023/06/08 03:40:47;;;;;;;2.92;1.52;;;;;;;17.20;98.09;99506.25;5036380;28;20049;-62
2023/06/08 03:43:17;;;;;;;2.92;1.60;;;;;;;17.17;98.01;99503.75;5036054;28;20049;-62
2023/06/08 03:45:50;;;;;;;1.00;1.00;;;;;;;17.20;98.10;99508.81;5036070;28;20137;-62
2023/06/08 03:48:20;;;;;;;1.17;0.98;;;;;;;17.06;97.96;99480.84;5036038;28;20163;-63
2023/06/08 03:50:51;;;;;;;1.63;1.05;;;;;;;17.15;97.96;99500.38;5051466;28;20245;-62
2023/06/08 03:53:22;;;;;;;0.88;0.75;;;;;;;17.22;98.03;99513.03;5034807;28;20051;-62
2023/06/08 03:55:51;;;;;;;0.90;0.88;;;;;;;17.21;97.67;99515.66;5035848;28;20049;-62
2023/06/08 03:58:21;;;;;;;0.60;0.60;;;;;;;17.22;97.90;99514.78;5036083;28;20053;-62
2023/06/08 04:00:53;;;;;;;4.45;2.00;;;;;;;17.22;97.91;99518.19;5034977;28;20041;-62
2023/06/08 04:03:24;;;;;;;0.65;0.65;;;;;;;17.23;97.86;99514.72;5034522;28;20499;-62
2023/06/08 04:05:54;;;;;;;1.52;1.13;;;;;;;17.25;97.79;99512.94;5034608;28;20376;-62
2023/06/08 04:08:22;;;;;;;2.00;1.40;;;;;;;17.23;97.75;99519.88;5034312;28;20049;-62
2023/06/08 04:10:51;;;;;;;0.88;0.88;;;;;;;17.23;97.96;99519.03;5034450;28;20073;-62
2023/06/08 04:13:21;;;;;;;1.33;1.23;;;;;;;17.25;97.82;99515.50;5034350;28;20052;-62
2023/06/08 04:15:52;;;;;;;0.93;0.90;;;;;;;17.28;97.88;99518.00;5034317;28;20046;-62
2023/06/08 04:18:21;;;;;;;2.05;0.98;;;;;;;17.13;97.75;99492.66;5034317;28;20047;-62
2023/06/08 04:20:51;;;;;;;1.02;0.93;;;;;;;17.30;97.89;99521.38;5034264;28;20052;-62
2023/06/08 04:23:20;;;;;;;0.50;0.50;;;;;;;17.18;97.80;99490.78;5035624;28;20103;-62
2023/06/08 04:25:50;;;;;;;0.80;0.80;;;;;;;17.40;97.70;99511.63;5034121;28;20057;-62
2023/06/08 04:28:18;;;;;;;1.58;1.48;;;;;;;17.42;97.70;99514.97;5034409;28;20049;-62
2023/06/08 04:30:48;;;;;;;0.80;0.80;;;;;;;17.43;97.79;99509.81;5035478;28;20049;-62
2023/06/08 04:33:18;;;;;;;;;;;;;;;17.47;97.41;99513.09;5034640;28;20049;-62
2023/06/08 04:35:47;;;;;;;2.53;1.35;;;;;;;17.51;97.73;99517.31;5034274;28;19986;-62
2023/06/08 04:38:16;;;;;;;2.53;1.35;;;;;;;17.54;97.46;99513.81;5033907;28;20049;-62
2023/06/08 04:40:52;;;;;;;1.10;1.00;;;;;;;17.57;97.38;99508.53;5035297;28;20045;-62
2023/06/08 04:43:30;;;;;;;0.60;0.60;;;;;;;17.58;97.45;99507.66;5035239;28;20104;-63
2023/06/08 04:46:05;;;;;;;0.82;0.80;;;;;;;17.55;97.21;99515.50;5034938;28;20045;-62
2023/06/08 04:48:37;;;;;;;1.75;1.33;;;;;;;17.54;97.20;99506.91;5034931;28;20069;-63
2023/06/08 04:51:09;;;;;;;2.08;1.88;;;;;;;17.57;97.16;99513.69;5034850;28;20045;-62
2023/06/08 04:53:39;;;;;;;1.38;1.17;;;;;;;17.60;96.99;99519.63;5034088;28;20053;-62
2023/06/08 04:56:08;;;;;;;0.77;0.77;;;;;;;17.62;97.03;99516.97;5035009;28;20128;-62
2023/06/08 04:58:37;;;;;;;1.63;1.52;;;;;;;17.67;96.79;99521.13;5033658;28;20061;-62
2023/06/08 05:01:06;;;;;;;1.30;1.02;;;;;;;17.69;96.50;99526.22;5033842;28;20053;-62
2023/06/08 05:03:37;;;;;;;1.30;1.20;;;;;;;17.68;96.38;99527.13;5034870;28;20136;-62
2023/06/08 05:06:06;;;;;;;1.05;0.98;;;;;;;17.72;96.20;99533.88;5033381;28;20103;-62
2023/06/08 05:08:35;;;;;;;1.85;1.15;;;;;;;17.75;96.18;99528.63;5034495;28;20073;-62
2023/06/08 05:11:04;;;;;;;0.73;0.73;;;;;;;17.78;96.08;99528.53;5034524;28;20049;-62
2023/06/08 05:13:33;;;;;;;1.53;1.20;;;;;;;17.79;95.86;99531.03;5033128;28;20504;-62
2023/06/08 05:16:01;;;;;;;0.67;0.47;;;;;;;17.81;95.70;99530.97;5033975;28;20291;-62
2023/06/08 05:18:30;;;;;;;0.90;0.90;;;;;;;17.82;95.82;99524.94;5034244;28;20053;-62
2023/06/08 05:21:01;;;;;;;1.27;1.17;;;;;;;17.88;95.82;99535.06;5033002;28;20053;-62
2023/06/08 05:23:30;;;;;;;1.80;1.23;;;;;;;17.88;95.54;99529.88;5034249;28;20050;-63
2023/06/08 05:25:59;;;;;;;2.75;1.75;;;;;;;17.84;95.45;99505.06;5034378;28;20056;-62
2023/06/08 05:28:27;;;;;;;1.83;1.10;;;;;;;18.04;95.24;99536.25;5034417;28;20045;-62
2023/06/08 05:30:56;;;;;;;2.13;1.10;;;;;;;18.12;95.19;99539.41;5033866;28;20052;-63
2023/06/08 05:33:25;;;;;;;1.67;1.27;;;;;;;18.19;94.99;99530.56;5034011;28;20128;-62
2023/06/08 05:35:54;;;;;;;0.90;0.90;;;;;;;18.11;94.60;99506.75;5034058;28;20052;-63
2023/06/08 05:38:34;;;;;;;3.73;1.27;;;;;;;18.25;94.40;99530.38;5034263;28;20136;-62
2023/06/08 05:41:03;;;;;;;2.50;1.42;;;;;;;18.32;94.07;99534.44;5034196;28;20095;-62
2023/06/08 05:43:32;;;;;;;2.53;1.80;;;;;;;18.33;93.80;99524.94;5033868;28;20136;-62
2023/06/08 05:46:01;;;;;;;1.50;0.98;;;;;;;18.17;93.44;99496.19;5033653;28;20053;-62
2023/06/08 05:48:30;;;;;;;0.98;0.90;;;;;;;18.46;93.47;99528.78;5033787;28;20123;-62
2023/06/08 05:50:59;;;;;;;1.23;0.70;;;;;;;18.53;93.08;99530.28;5034058;28;20084;-62
2023/06/08 05:53:28;;;;;;;1.90;1.42;;;;;;;18.61;92.81;99523.94;5033671;28;20507;-62
2023/06/08 05:55:59;;;;;;;1.33;1.15;;;;;;;18.63;92.29;99522.16;5033795;28;20065;-63
2023/06/08 05:58:27;;;;;;;0.95;0.93;;;;;;;18.66;92.38;99521.19;5033691;28;20521;-63
2023/06/08 06:01:17;;;;;;;0.85;0.63;;;;;;;18.70;91.79;99522.75;5034017;28;20444;-62
2023/06/08 06:03:45;;;;;;;0.60;0.60;;;;;;;18.71;91.41;99522.69;5033908;28;20037;-62
2023/06/08 06:06:14;;;;;;;1.60;1.50;;;;;;;18.62;91.34;99489.41;5033487;28;20045;-62
2023/06/08 06:08:43;;;;;;;0.93;0.83;;;;;;;18.88;91.03;99510.91;5033505;28;20061;-63
2023/06/08 06:11:14;;;;;;;1.02;0.95;;;;;;;18.92;90.88;99509.88;5033529;28;20757;-62
2023/06/08 06:13:43;;;;;;;1.17;1.08;;;;;;;18.96;90.44;99514.03;5033746;28;20372;-62
2023/06/08 06:16:12;;;;;;;1.60;1.50;;;;;;;18.99;90.17;99513.94;5033402;28;20075;-62
2023/06/08 06:18:46;;;;;;;1.33;1.20;;;;;;;19.05;89.73;99516.31;5033332;28;20103;-63
2023/06/08 06:21:16;;;;;;;1.33;1.17;;;;;;;19.16;89.59;99521.91;5033520;28;20053;-62
2023/06/08 06:23:45;;;;;;;1.85;1.05;;;;;;;19.17;89.29;99523.59;5033352;28;20045;-62
2023/06/08 06:26:15;;;;;;;1.48;1.30;;;;;;;19.25;89.02;99527.56;5033673;28;20057;-62
2023/06/08 06:28:44;;;;;;;1.10;0.98;;;;;;;19.32;88.77;99516.06;5033259;28;20057;-62
2023/06/08 06:31:13;;;;;;;1.42;1.33;;;;;;;19.39;88.43;99519.28;5033111;28;20057;-63
2023/06/08 06:33:42;;;;;;;3.75;1.60;;;;;;;19.26;88.52;99497.34;5037526;28;20046;-62
2023/06/08 06:36:11;;;;;;;0.77;0.77;;;;;;;19.42;87.92;99510.56;5037574;28;20057;-62
2023/06/08 06:38:41;;;;;;;2.88;1.80;;;;;;;19.53;87.61;99517.00;5037223;28;20060;-62
2023/06/08 06:41:10;;;;;;;1.42;1.33;;;;;;;19.67;87.43;99530.28;5037265;28;20502;-62
2023/06/08 06:43:40;;;;;;;1.20;0.67;;;;;;;19.76;86.74;99529.88;5037155;28;20100;-63
2023/06/08 06:46:19;;;;;;;0.70;0.70;;;;;;;19.77;86.02;99536.75;5037137;28;20056;-63
2023/06/08 06:48:48;;;;;;;0.98;0.90;;;;;;;19.78;85.51;99533.25;5037093;28;20058;-63
2023/06/08 06:51:17;;;;;;;0.63;0.63;;;;;;;19.85;85.12;99534.69;5036994;28;20054;-62
2023/06/08 06:53:46;;;;;;;1.55;1.33;;;;;;;19.94;85.02;99538.63;5036859;28;20495;-63
2023/06/08 06:56:15;;;;;;;1.30;1.17;;;;;;;19.98;84.39;99546.25;5036950;28;20064;-63
2023/06/08 06:58:45;;;;;;;1.15;0.90;;;;;;;19.98;84.10;99541.06;5035865;28;20511;-62
2023/06/08 07:01:15;;;;;;;0.63;0.63;;;;;;;20.05;84.26;99536.47;5037347;28;20056;-63
2023/06/08 07:03:46;;;;;;;1.60;1.50;;;;;;;20.16;84.14;99538.59;5036787;28;20111;-62
2023/06/08 07:06:15;;;;;;;1.73;1.10;;;;;;;20.21;83.55;99541.84;5036746;28;20045;-63
2023/06/08 07:08:44;;;;;;;2.77;1.63;;;;;;;20.19;83.40;99539.31;5037689;28;20041;-63
2023/06/08 07:11:13;;;;;;;1.20;1.10;;;;;;;20.16;83.03;99533.41;5036718;28;20045;-63
2023/06/08 07:13:41;;;;;;;2.90;1.23;;;;;;;20.10;82.92;99518.97;5036740;28;20033;-63
2023/06/08 07:16:12;;;;;;;1.20;1.10;;;;;;;20.26;82.79;99535.59;5036555;28;20442;-63
2023/06/08 07:18:41;;;;;;;0.70;0.70;;;;;;;20.31;82.35;99530.22;5036879;28;20128;-62
2023/06/08 07:21:10;;;;;;;0.70;0.70;;;;;;;20.40;82.42;99522.03;5036792;28;20075;-63
2023/06/08 07:23:39;;;;;;;1.63;0.90;;;;;;;20.51;81.94;99514.66;5036657;28;20052;-63
2023/06/08 07:26:30;;;;;;;1.42;0.88;;;;;;;20.72;81.73;99518.88;5036451;28;20073;-63
2023/06/08 07:29:00;;;;;;;1.35;1.10;;;;;;;20.80;81.39;99524.59;5036578;28;20073;-63
2023/06/08 07:31:31;;;;;;;1.30;1.15;;;;;;;20.91;81.26;99514.56;5036352;28;20057;-63
2023/06/08 07:34:00;;;;;;;1.38;1.13;;;;;;;21.08;81.09;99517.25;5036416;28;20092;-63
2023/06/08 07:36:29;;;;;;;1.67;1.13;;;;;;;21.20;80.56;99503.72;5036279;28;20072;-63
2023/06/08 07:38:58;;;;;;;3.08;1.10;;;;;;;21.47;80.10;99509.38;5036455;28;20041;-62
2023/06/08 07:41:27;;;;;;;1.38;1.27;;;;;;;21.67;79.82;99505.78;5036399;28;20045;-62
2023/06/08 07:43:56;;;;;;;0.70;0.70;;;;;;;21.74;79.00;99502.00;5035003;28;20049;-62
2023/06/08 07:46:25;;;;;;;1.80;1.00;;;;;;;22.10;78.13;99514.97;5036353;28;20411;-63
2023/06/08 07:48:55;;;;;;;1.17;0.77;;;;;;;22.19;77.00;99504.94;5036019;28;20060;-62
2023/06/08 07:51:24;;;;;;;1.10;1.05;;;;;;;22.27;76.13;99502.75;5035945;28;20072;-62
2023/06/08 07:53:53;;;;;;;1.77;1.58;;;;;;;22.39;75.49;99496.09;5035982;28;20053;-62
2023/06/08 07:56:22;;;;;;;1.42;1.33;;;;;;;22.30;74.99;99502.63;5035968;28;20068;-62
2023/06/08 07:58:51;;;;;;;2.15;1.23;;;;;;;22.14;74.67;99506.91;5034615;28;20128;-62
2023/06/08 08:01:20;;;;;;;3.90;1.17;;;;;;;22.13;75.02;99510.44;5035937;28;20041;-62
2023/06/08 08:03:49;;;;;;;4.68;1.70;;;;;;;21.96;74.91;99479.22;5036010;28;20048;-63
2023/06/08 08:06:19;;;;;;;2.85;1.33;;;;;;;21.83;74.03;99486.78;5035732;28;20133;-63
2023/06/08 08:08:48;;;;;;;1.80;1.15;;;;;;;21.95;74.32;99506.97;5035685;28;20050;-62
2023/06/08 08:11:17;;;;;;;1.42;1.15;;;;;;;21.93;74.25;99508.00;5035591;28;20049;-63
2023/06/08 08:13:46;;;;;;;0.95;0.90;;;;;;;21.89;74.10;99506.44;5035750;28;20403;-62
2023/06/08 08:16:15;;;;;;;1.42;1.17;;;;;;;21.82;73.74;99499.84;5035697;28;20147;-62
2023/06/08 08:18:44;;;;;;;1.13;1.02;;;;;;;21.74;73.27;99496.81;5035393;28;20128;-62
2023/06/08 08:21:12;;;;;;;0.77;0.77;;;;;;;21.65;73.58;99497.22;5035618;28;20045;-63
2023/06/08 08:23:43;;;;;;;1.30;1.13;;;;;;;21.62;73.67;99497.41;5034197;28;20041;-62
2023/06/08 08:26:12;;;;;;;1.45;1.33;;;;;;;21.52;73.06;99493.56;5034184;28;20136;-63
2023/06/08 08:28:44;;;;;;;1.73;1.50;;;;;;;21.48;73.14;99490.25;5035301;28;20041;-62
2023/06/08 08:31:13;;;;;;;2.25;2.03;;;;;;;21.43;73.20;99497.41;5035303;28;20045;-62
2023/06/08 08:33:44;;;;;;;0.85;0.82;;;;;;;21.39;73.16;99495.88;5035112;28;20502;-62
2023/06/08 08:36:13;;;;;;;1.58;1.38;;;;;;;21.49;73.40;99491.09;5033943;28;20421;-63
2023/06/08 08:38:43;;;;;;;1.95;1.25;;;;;;;21.53;74.00;99487.44;5034031;28;20546;-62
2023/06/08 08:41:12;;;;;;;0.70;0.70;;;;;;;21.51;75.08;99491.84;5035411;28;20132;-62
2023/06/08 08:43:48;;;;;;;;;;;;;;;21.53;75.65;99487.44;5035612;28;20184;-63
2023/06/08 08:46:21;;;;;;;2.05;1.27;;;;;;;21.52;76.10;99488.34;5034931;28;19921;-63
2023/06/08 08:48:51;;;;;;;1.63;1.25;;;;;;;21.51;76.86;99489.25;5035145;28;20041;-62
2023/06/08 08:51:21;;;;;;;3.15;2.00;;;;;;;21.49;77.69;99489.34;5034817;28;20045;-62
2023/06/08 08:53:52;;;;;;;1.13;1.00;;;;;;;21.47;78.19;99488.59;5034645;28;20060;-63
2023/06/08 08:56:21;;;;;;;9.23;1.50;;;;;;;21.56;78.45;99487.28;5034844;28;20480;-63
2023/06/08 08:58:52;;;;;;;1.48;1.25;;;;;;;21.67;78.14;99483.25;5034675;28;20077;-62
2023/06/08 09:01:23;;;;;;;1.65;1.42;;;;;;;21.97;77.42;99486.97;5033509;28;20049;-62
2023/06/08 09:03:53;;;;;;;2.38;1.35;;;;;;;22.10;77.03;99484.56;5035135;28;20041;-63
2023/06/08 09:06:22;;;;;;;2.03;1.58;;;;;;;22.10;76.22;99486.34;5034384;28;20055;-63
2023/06/08 09:08:53;;;;;;;1.30;1.20;;;;;;;22.11;75.90;99475.88;5034522;28;20107;-63
2023/06/08 09:11:23;;;;;;;0.80;0.77;;;;;;;22.28;75.39;99473.25;5034424;28;20050;-63
2023/06/08 09:14:06;;;;;;;;;;;;;;;22.51;74.34;99472.88;5034827;28;20042;-62
2023/06/08 09:16:43;;;;;;;1.35;1.25;;;;;;;22.80;73.22;99470.50;5034339;28;19974;-62
2023/06/08 09:19:12;;;;;;;1.95;1.38;;;;;;;23.12;72.13;99472.22;5034366;28;20128;-63
2023/06/08 09:21:41;;;;;;;0.95;0.90;;;;;;;23.65;72.19;99474.44;5034246;28;20072;-63
2023/06/08 09:24:14;;;;;;;2.58;1.48;;;;;;;23.70;70.66;99468.06;5034748;28;20033;-63
2023/06/08 09:26:47;;;;;;;9.10;1.73;;;;;;;23.75;69.02;99467.78;5034569;28;20518;-63
2023/06/08 09:29:32;;;;;;;2.53;1.98;;;;;;;23.76;67.75;99462.47;5034394;28;20045;-63
2023/06/08 09:32:02;;;;;;;0.73;0.73;;;;;;;23.77;67.08;99471.13;5033487;28;20050;-63
2023/06/08 09:34:33;;;;;;;0.98;0.93;;;;;;;23.60;66.79;99463.44;5033873;28;20080;-63
2023/06/08 09:37:07;;;;;;;1.70;1.10;;;;;;;23.52;66.97;99466.47;5034234;28;20041;-63
2023/06/08 09:39:42;;;;;;;1.75;1.02;;;;;;;23.54;67.19;99469.84;5034021;28;20045;-63
2023/06/08 09:42:11;;;;;;;1.58;1.08;;;;;;;23.58;67.37;99460.94;5033848;28;20049;-63
2023/06/08 09:44:40;;;;;;;0.88;0.85;;;;;;;23.50;66.99;99457.91;5034216;28;20045;-63
2023/06/08 09:47:22;;;;;;;1.05;1.02;;;;;;;23.54;66.77;99448.19;5034168;28;20045;-63
2023/06/08 09:49:52;;;;;;;1.75;1.23;;;;;;;23.81;66.16;99442.19;5034061;28;20130;-63
2023/06/08 09:52:21;;;;;;;0.70;0.70;;;;;;;23.97;65.72;99435.13;5034077;28;20132;-63
2023/06/08 09:54:53;;;;;;;0.75;0.75;;;;;;;24.16;65.52;99434.94;5033635;28;20124;-63
2023/06/08 09:57:22;;;;;;;1.08;0.90;;;;;;;24.24;65.27;99434.44;5033722;28;20050;-63
2023/06/08 09:59:57;;;;;;;1.27;0.95;;;;;;;24.20;64.81;99423.38;5033423;28;20051;-63
2023/06/08 10:02:31;;;;;;;3.03;1.85;;;;;;;24.40;65.65;99416.94;5032697;28;20053;-63
2023/06/08 10:05:08;;;;;;;1.25;1.15;;;;;;;24.84;66.49;99430.69;5033527;28;20063;-64
2023/06/08 10:07:38;;;;;;;0.52;0.52;;;;;;;25.02;64.91;99419.09;5032932;28;20056;-64
2023/06/08 10:10:13;;;;;;;1.48;1.23;;;;;;;24.92;63.73;99418.00;5033879;28;20401;-63
2023/06/08 10:12:43;;;;;;;1.35;1.25;;;;;;;24.71;63.99;99421.09;5033752;28;20045;-63
2023/06/08 10:15:12;;;;;;;1.23;1.13;;;;;;;24.46;64.24;99419.16;5033788;28;20045;-63
2023/06/08 10:17:42;;;;;;;1.00;0.80;;;;;;;24.22;64.59;99420.66;5033404;28;20077;-65
2023/06/08 10:20:16;;;;;;;0.80;0.80;;;;;;;23.78;65.27;99418.06;5032371;28;20400;-63
2023/06/08 10:22:46;;;;;;;0.95;0.88;;;;;;;23.43;66.06;99409.69;5033420;28;20042;-63
2023/06/08 10:25:17;;;;;;;1.20;1.10;;;;;;;23.30;66.83;99419.09;5033444;28;20065;-63
2023/06/08 10:27:50;;;;;;;3.33;1.75;;;;;;;23.11;67.49;99402.81;5032305;28;20040;-63
2023/06/08 10:30:29;;;;;;;1.73;1.50;;;;;;;22.98;68.13;99402.69;5033322;28;20052;-63
2023/06/08 10:33:08;;;;;;;1.67;1.38;;;;;;;22.98;68.12;99401.84;5033241;28;20042;-63
2023/06/08 10:35:38;;;;;;;0.50;0.50;;;;;;;22.88;68.50;99385.91;5033209;28;20068;-63
2023/06/08 10:38:10;;;;;;;;;;;;;;;22.91;68.86;99390.09;5033973;28;20566;-63
2023/06/08 10:40:44;;;;;;;1.20;1.10;;;;;;;22.82;68.75;99395.81;5033598;28;19921;-63
2023/06/08 10:43:14;;;;;;;0.95;0.90;;;;;;;22.72;69.07;99389.44;5033191;28;20045;-64
2023/06/08 10:46:04;;;;;;;1.77;1.65;;;;;;;22.63;69.35;99381.19;5033575;28;20042;-63
2023/06/08 10:48:37;;;;;;;0.90;0.90;;;;;;;22.62;69.83;99392.53;5034051;28;20045;-63
2023/06/08 10:51:11;;;;;;;3.10;1.85;;;;;;;22.58;70.32;99393.59;5033243;28;20053;-63
2023/06/08 10:53:41;;;;;;;2.17;1.15;;;;;;;22.47;71.27;99392.47;5033172;28;20053;-63
2023/06/08 10:56:17;;;;;;;1.75;1.40;;;;;;;22.38;72.14;99390.38;5033134;28;20084;-63
2023/06/08 10:58:52;;;;;;;2.03;1.17;;;;;;;22.38;73.08;99387.78;5033361;28;20057;-63
2023/06/08 11:01:24;;;;;;;1.30;1.20;;;;;;;22.40;74.04;99384.19;5033012;28;20045;-63
2023/06/08 11:04:00;;;;;;;2.05;1.10;;;;;;;22.13;74.33;99364.84;5033075;28;20095;-64
2023/06/08 11:06:38;;;;;;;2.40;2.00;;;;;;;22.26;75.05;99391.88;5032984;28;20136;-63
2023/06/08 11:09:08;;;;;;;1.27;1.13;;;;;;;22.33;75.35;99390.63;5033297;28;20072;-63
2023/06/08 11:11:51;;;;;;;1.13;1.00;;;;;;;22.36;75.48;99377.44;5033040;28;20069;-63
2023/06/08 11:14:21;;;;;;;1.13;1.02;;;;;;;22.50;75.33;99380.16;5032944;28;20128;-63
2023/06/08 11:16:52;;;;;;;1.00;0.95;;;;;;;22.61;74.84;99383.03;5033565;28;20046;-63
2023/06/08 11:19:21;;;;;;;1.33;1.23;;;;;;;22.70;74.84;99379.09;5035459;28;20410;-63
2023/06/08 11:21:51;;;;;;;1.42;0.93;;;;;;;22.76;74.66;99380.53;5036531;28;20053;-63
2023/06/08 11:24:20;;;;;;;1.05;0.95;;;;;;;22.70;74.27;99371.28;5036701;28;20095;-63
2023/06/08 11:26:51;;;;;;;2.88;1.92;;;;;;;22.68;74.23;99368.78;5036732;28;20041;-63
2023/06/08 11:29:27;;;;;;;1.45;1.10;;;;;;;22.64;74.75;99374.25;5036349;28;20490;-63
2023/06/08 11:32:09;;;;;;;2.83;2.05;;;;;;;22.63;74.99;99376.00;5036307;28;20107;-63
2023/06/08 11:34:45;;;;;;;1.52;1.40;;;;;;;22.66;75.12;99378.44;5036653;28;20049;-63
2023/06/08 11:37:18;;;;;;;9.55;1.58;;;;;;;22.64;74.93;99382.88;5036417;28;20369;-63
2023/06/08 11:39:48;;;;;;;1.38;1.27;;;;;;;22.64;75.11;99377.69;5036196;28;20099;-63
2023/06/08 11:42:18;;;;;;;2.00;1.25;;;;;;;22.60;75.04;99370.09;5036095;28;20049;-64
2023/06/08 11:44:49;;;;;;;3.20;1.30;;;;;;;22.64;75.15;99380.28;5034990;28;20045;-64
2023/06/08 11:47:20;;;;;;;2.70;2.45;;;;;;;22.66;75.10;99381.03;5036416;28;20491;-64
2023/06/08 11:49:52;;;;;;;1.10;1.00;;;;;;;22.66;74.69;99378.44;5036020;28;20411;-63
2023/06/08 11:52:23;;;;;;;1.52;1.38;;;;;;;22.57;74.83;99381.50;5034839;28;20495;-63